createdAt,value
2016-04-20T08:27:33.422Z,180
2016-04-20T08:28:35.691Z,230
2016-04-20T08:29:36.208Z,205
2016-04-20T08:30:36.211Z,170
2016-04-20T08:31:36.230Z,155
2016-04-20T08:32:36.248Z,150
2016-04-20T08:33:39.297Z,145
2016-04-20T08:34:36.316Z,145
2016-04-20T08:35:36.318Z,145
2016-04-20T08:36:36.352Z,155
2016-04-20T08:37:36.371Z,155
2016-04-20T08:38:36.373Z,155
2016-04-20T08:39:36.407Z,155
2016-04-20T08:40:36.285Z,155
2016-04-20T08:41:36.476Z,155
2016-04-20T08:42:36.478Z,155
2016-04-20T08:43:36.512Z,170
2016-04-20T08:44:36.546Z,175
2016-04-20T08:45:36.565Z,200
2016-04-20T08:46:36.551Z,210
2016-04-20T08:47:36.585Z,190
2016-04-20T08:48:36.604Z,205
2016-04-20T08:49:36.670Z,205
2016-04-20T08:50:36.672Z,160
2016-04-20T08:51:36.706Z,155
2016-04-20T08:52:36.723Z,165
2016-04-20T08:53:36.742Z,435
2016-04-20T08:54:36.776Z,440
2016-04-20T08:55:36.778Z,170
2016-04-20T08:56:36.813Z,160
2016-04-20T08:57:36.830Z,155
2016-04-20T08:58:36.850Z,155
2016-04-20T08:59:36.883Z,150
2016-04-20T09:00:36.902Z,145
2016-04-20T09:01:36.936Z,165
2016-04-20T09:02:36.938Z,185
2016-04-20T09:03:36.972Z,160
2016-04-20T09:04:36.990Z,165
2016-04-20T09:05:36.852Z,155
2016-04-20T09:06:37.026Z,145
2016-04-20T09:07:37.093Z,140
2016-04-20T09:08:37.110Z,135
2016-04-20T09:09:37.113Z,135
2016-04-20T09:10:37.163Z,135
2016-04-20T09:11:37.150Z,135
2016-04-20T09:12:37.184Z,135
2016-04-20T09:13:37.234Z,135
2016-04-20T09:14:37.237Z,135
2016-04-20T09:15:37.301Z,135
2016-04-20T09:16:37.273Z,135
2016-04-20T09:17:37.306Z,135
2016-04-20T09:18:37.340Z,135
2016-04-20T09:19:37.359Z,120
2016-04-20T09:20:37.393Z,125
2016-04-20T09:21:38.020Z,100
2016-04-20T09:22:37.335Z,130
2016-04-20T09:23:37.447Z,130
2016-04-20T09:24:37.466Z,135
2016-04-20T09:25:37.499Z,135
2016-04-20T09:26:37.518Z,135
2016-04-20T09:27:37.551Z,135
2016-04-20T09:28:37.569Z,130
2016-04-20T09:29:37.604Z,130
2016-04-20T09:30:37.700Z,130
2016-04-20T09:31:37.656Z,130
2016-04-20T09:32:37.690Z,135
2016-04-20T09:33:37.707Z,205
2016-04-20T09:34:37.742Z,185
2016-04-20T09:35:37.729Z,135
2016-04-20T09:36:37.794Z,135
2016-04-20T09:37:37.797Z,135
2016-04-20T09:38:37.814Z,135
2016-04-20T09:39:37.865Z,135
2016-04-20T09:40:37.867Z,140
2016-04-20T09:41:37.901Z,150
2016-04-20T09:42:37.936Z,160
2016-04-20T09:43:37.938Z,160
2016-04-20T09:44:37.956Z,155
2016-04-20T09:45:37.989Z,160
2016-04-20T09:46:38.024Z,150
2016-04-20T09:47:38.042Z,140
2016-04-20T09:48:38.092Z,140
2016-04-20T09:49:38.095Z,145
2016-04-20T09:50:38.128Z,150
2016-04-20T09:51:38.147Z,150
2016-04-20T09:52:38.180Z,145
2016-04-20T09:53:38.199Z,140
2016-04-20T09:54:38.249Z,155
2016-04-20T09:55:38.252Z,140
2016-04-20T09:56:38.285Z,135
2016-04-20T09:57:38.288Z,130
2016-04-20T09:58:38.322Z,130
2016-04-20T09:59:38.356Z,125
2016-04-20T10:00:38.390Z,130
2016-04-20T10:01:38.407Z,135
2016-04-20T10:02:38.457Z,135
2016-04-20T10:03:38.460Z,130
2016-04-20T10:04:38.494Z,140
2016-04-20T10:05:38.497Z,140
2016-04-20T10:06:38.421Z,135
2016-04-20T10:07:38.564Z,130
2016-04-20T10:08:38.583Z,130
2016-04-20T10:09:38.617Z,130
2016-04-20T10:10:38.682Z,135
2016-04-20T10:11:38.701Z,135
2016-04-20T10:12:38.687Z,140
2016-04-20T10:13:38.722Z,155
2016-04-20T10:14:38.756Z,175
2016-04-20T10:15:38.775Z,205
2016-04-20T10:16:38.839Z,210
2016-04-20T10:17:38.826Z,200
2016-04-20T10:18:38.861Z,185
2016-04-20T10:19:38.878Z,170
2016-04-20T10:20:38.928Z,165
2016-04-20T10:21:38.931Z,160
2016-04-20T10:22:38.949Z,155
2016-04-20T10:23:38.983Z,145
2016-04-20T10:24:39.017Z,150
2016-04-20T10:25:39.066Z,175
2016-04-20T10:26:39.054Z,170
2016-04-20T10:27:39.102Z,155
2016-04-20T10:28:39.137Z,140
2016-04-20T10:29:39.140Z,140
2016-04-20T10:30:39.174Z,140
2016-04-20T10:31:39.207Z,140
2016-04-20T10:32:39.226Z,150
2016-04-20T10:33:39.276Z,150
2016-04-20T10:34:39.294Z,145
2016-04-20T10:35:39.344Z,145
2016-04-20T10:36:39.331Z,150
2016-04-20T10:37:39.348Z,160
2016-04-20T10:38:39.382Z,165
2016-04-20T10:39:39.464Z,145
2016-04-20T10:40:39.450Z,135
2016-04-20T10:41:39.485Z,135
2016-04-20T10:42:39.503Z,130
2016-04-20T10:43:39.568Z,125
2016-04-20T10:44:39.555Z,125
2016-04-20T10:45:39.605Z,125
2016-04-20T10:46:39.608Z,125
2016-04-20T10:47:39.642Z,125
2016-04-20T10:48:39.659Z,130
2016-04-20T10:49:38.944Z,125
2016-04-20T10:50:39.711Z,120
2016-04-20T10:51:39.730Z,125
2016-04-20T10:52:39.780Z,120
2016-04-20T10:53:39.782Z,120
2016-04-20T10:54:39.832Z,125
2016-04-20T10:55:39.850Z,130
2016-04-20T10:56:39.869Z,130
2016-04-20T10:57:39.933Z,120
2016-04-20T10:58:39.921Z,125
2016-04-20T10:59:39.954Z,125
2016-04-20T11:00:39.988Z,130
2016-04-20T11:01:40.023Z,125
2016-04-20T11:02:39.901Z,120
2016-04-20T11:03:40.060Z,120
2016-04-20T11:04:40.093Z,120
2016-04-20T11:05:40.112Z,125
2016-04-20T11:06:40.145Z,130
2016-04-20T11:07:40.179Z,125
2016-04-20T11:08:40.198Z,120
2016-04-20T11:09:40.216Z,120
2016-04-20T11:10:40.250Z,120
2016-04-20T11:11:40.268Z,125
2016-04-20T11:12:40.303Z,120
2016-04-20T11:13:40.337Z,125
2016-04-20T11:14:40.370Z,125
2016-04-20T11:15:40.389Z,120
2016-04-20T11:16:40.422Z,115
2016-04-20T11:17:40.441Z,115
2016-04-20T11:18:40.459Z,115
2016-04-20T11:19:40.509Z,115
2016-04-20T11:20:40.528Z,115
2016-04-20T11:21:40.577Z,110
2016-04-20T11:22:40.908Z,110
2016-04-20T11:23:41.003Z,110
2016-04-20T11:24:40.647Z,110
2016-04-20T11:25:40.666Z,110
2016-04-20T11:26:40.699Z,110
2016-04-20T11:27:40.733Z,115
2016-04-20T11:28:40.735Z,110
2016-04-20T11:29:40.769Z,110
2016-04-20T11:30:40.788Z,110
2016-04-20T11:31:40.822Z,110
2016-04-20T11:32:40.841Z,110
2016-04-20T11:33:40.875Z,110
2016-04-20T11:34:40.908Z,110
2016-04-20T11:35:40.771Z,110
2016-04-20T11:36:40.960Z,110
2016-04-20T11:37:40.995Z,110
2016-04-20T11:38:41.013Z,110
2016-04-20T11:39:40.891Z,110
2016-04-20T11:40:41.081Z,110
2016-04-20T11:41:40.818Z,110
2016-04-20T11:42:41.101Z,110
2016-04-20T11:43:41.136Z,110
2016-04-20T11:44:41.200Z,110
2016-04-20T11:45:41.204Z,110
2016-04-20T11:46:41.253Z,110
2016-04-20T11:47:41.239Z,110
2016-04-20T11:48:41.275Z,110
2016-04-20T11:49:41.323Z,110
2016-04-20T11:50:41.358Z,105
2016-04-20T11:51:41.392Z,105
2016-04-20T11:52:41.410Z,105
2016-04-20T11:53:41.444Z,110
2016-04-20T11:54:41.462Z,110
2016-04-20T11:55:41.464Z,110
2016-04-20T11:56:41.514Z,105
2016-04-20T11:57:41.579Z,105
2016-04-20T11:58:41.551Z,110
2016-04-20T11:59:41.586Z,110
2016-04-20T12:00:41.635Z,105
2016-04-20T12:01:41.622Z,105
2016-04-20T12:02:41.671Z,105
2016-04-20T12:03:41.689Z,105
2016-04-20T12:04:41.707Z,105
2016-04-20T12:05:41.852Z,105
2016-04-20T12:06:41.760Z,105
2016-04-20T12:07:41.794Z,105
2016-04-20T12:08:41.843Z,105
2016-04-20T12:09:41.877Z,105
2016-04-20T12:10:41.895Z,105
2016-04-20T12:11:41.898Z,105
2016-04-20T12:12:41.918Z,105
2016-04-20T12:13:41.951Z,105
2016-04-20T12:14:41.985Z,105
2016-04-20T12:15:42.018Z,105
2016-04-20T12:16:42.052Z,105
2016-04-20T12:17:42.071Z,105
2016-04-20T12:18:42.106Z,105
2016-04-20T12:19:42.108Z,100
2016-04-20T12:20:42.267Z,100
2016-04-20T12:21:42.191Z,100
2016-04-20T12:22:42.022Z,100
2016-04-20T12:23:42.212Z,100
2016-04-20T12:24:42.277Z,100
2016-04-20T12:25:42.264Z,100
2016-04-20T12:26:42.329Z,100
2016-04-20T12:27:42.800Z,100
2016-04-20T12:28:42.350Z,100
2016-04-20T12:29:42.369Z,100
2016-04-20T12:30:42.418Z,105
2016-04-20T12:31:42.437Z,105
2016-04-20T12:32:42.454Z,105
2016-04-20T12:33:42.488Z,105
2016-04-20T12:34:42.538Z,105
2016-04-20T12:35:42.588Z,100
2016-04-20T12:36:42.560Z,100
2016-04-20T12:37:42.594Z,100
2016-04-20T12:38:42.612Z,100
2016-04-20T12:39:42.646Z,100
2016-04-20T12:40:42.649Z,100
2016-04-20T12:41:42.714Z,100
2016-04-20T12:42:42.560Z,100
2016-04-20T12:43:42.734Z,100
2016-04-20T12:44:42.784Z,100
2016-04-20T12:45:42.803Z,100
2016-04-20T12:46:42.821Z,100
2016-04-20T12:47:42.840Z,100
2016-04-20T12:48:42.904Z,100
2016-04-20T12:49:42.923Z,100
2016-04-20T12:50:43.019Z,100
2016-04-20T12:51:42.944Z,100
2016-04-20T12:52:42.978Z,100
2016-04-20T12:53:43.011Z,100
2016-04-20T12:54:43.030Z,100
2016-04-20T12:55:43.064Z,95
2016-04-20T12:56:43.098Z,95
2016-04-20T12:57:43.116Z,95
2016-04-20T12:58:43.150Z,95
2016-04-20T12:59:43.044Z,95
2016-04-20T13:00:43.233Z,95
2016-04-20T13:01:43.204Z,95
2016-04-20T13:02:43.238Z,95
2016-04-20T13:03:43.289Z,95
2016-04-20T13:04:43.322Z,95
2016-04-20T13:05:43.403Z,95
2016-04-20T13:06:43.374Z,95
2016-04-20T13:07:43.393Z,95
2016-04-20T13:08:43.396Z,95
2016-04-20T13:09:43.446Z,95
2016-04-20T13:10:43.448Z,95
2016-04-20T13:11:43.497Z,95
2016-04-20T13:12:43.500Z,95
2016-04-20T13:13:43.596Z,95
2016-04-20T13:14:43.552Z,95
2016-04-20T13:15:43.602Z,95
2016-04-20T13:16:43.636Z,95
2016-04-20T13:17:43.654Z,95
2016-04-20T13:18:43.673Z,95
2016-04-20T13:19:43.722Z,95
2016-04-20T13:20:43.834Z,95
2016-04-20T13:21:43.790Z,95
2016-04-20T13:22:43.777Z,90
2016-04-20T13:23:43.795Z,95
2016-04-20T13:24:43.828Z,95
2016-04-20T13:25:43.863Z,95
2016-04-20T13:26:43.897Z,95
2016-04-20T13:27:43.931Z,95
2016-04-20T13:28:43.950Z,95
2016-04-20T13:29:43.858Z,95
2016-04-20T13:30:44.002Z,95
2016-04-20T13:31:44.019Z,95
2016-04-20T13:32:44.039Z,95
2016-04-20T13:33:44.072Z,95
2016-04-20T13:34:44.091Z,95
2016-04-20T13:35:44.265Z,90
2016-04-20T13:36:43.393Z,90
2016-04-20T13:37:44.223Z,90
2016-04-20T13:38:44.227Z,90
2016-04-20T13:39:44.229Z,90
2016-04-20T13:40:44.247Z,90
2016-04-20T13:41:44.282Z,90
2016-04-20T13:42:44.299Z,90
2016-04-20T13:43:44.333Z,90
2016-04-20T13:44:44.383Z,90
2016-04-20T13:45:44.385Z,90
2016-04-20T13:46:44.420Z,90
2016-04-20T13:47:44.453Z,90
2016-04-20T13:48:44.488Z,90
2016-04-20T13:49:44.490Z,90
2016-04-20T13:50:44.524Z,85
2016-04-20T13:51:44.558Z,85
2016-04-20T13:52:44.593Z,85
2016-04-20T13:53:44.611Z,90
2016-04-20T13:54:44.628Z,85
2016-04-20T13:55:44.662Z,85
2016-04-20T13:56:44.697Z,90
2016-04-20T13:57:44.699Z,85
2016-04-20T13:58:44.718Z,80
2016-04-20T13:59:44.752Z,90
2016-04-20T14:00:44.786Z,95
2016-04-20T14:01:44.804Z,80
2016-04-20T14:02:45.041Z,80
2016-04-20T14:03:44.872Z,90
2016-04-20T14:04:44.890Z,80
2016-04-20T14:05:44.908Z,80
2016-04-20T14:06:44.926Z,75
2016-04-20T14:07:44.977Z,75
2016-04-20T14:08:45.010Z,80
2016-04-20T14:09:45.029Z,75
2016-04-20T14:10:45.047Z,75
2016-04-20T14:11:45.080Z,75
2016-04-20T14:12:45.115Z,90
2016-04-20T14:13:45.133Z,75
2016-04-20T14:14:45.168Z,75
2016-04-20T14:15:45.201Z,75
2016-04-20T14:16:45.203Z,75
2016-04-20T14:17:45.237Z,80
2016-04-20T14:18:45.271Z,75
2016-04-20T14:19:45.290Z,75
2016-04-20T14:20:45.574Z,75
2016-04-20T14:21:45.420Z,75
2016-04-20T14:22:45.377Z,75
2016-04-20T14:23:45.410Z,75
2016-04-20T14:24:45.398Z,85
2016-04-20T14:25:45.479Z,75
2016-04-20T14:26:45.451Z,75
2016-04-20T14:27:45.484Z,75
2016-04-20T14:28:45.518Z,75
2016-04-20T14:29:45.537Z,75
2016-04-20T14:30:45.571Z,80
2016-04-20T14:31:45.604Z,75
2016-04-20T14:32:45.637Z,75
2016-04-20T14:33:45.640Z,75
2016-04-20T14:34:45.659Z,75
2016-04-20T14:35:45.725Z,75
2016-04-20T14:36:45.695Z,75
2016-04-20T14:37:45.823Z,75
2016-04-20T14:38:45.779Z,75
2016-04-20T14:39:45.782Z,75
2016-04-20T14:40:45.831Z,70
2016-04-20T14:41:45.678Z,70
2016-04-20T14:42:45.869Z,70
2016-04-20T14:43:45.886Z,80
2016-04-20T14:44:45.920Z,70
2016-04-20T14:45:45.939Z,70
2016-04-20T14:46:48.380Z,80
2016-04-20T14:47:46.007Z,70
2016-04-20T14:48:46.041Z,75
2016-04-20T14:49:46.044Z,70
2016-04-20T14:50:46.061Z,75
2016-04-20T14:51:46.096Z,65
2016-04-20T14:52:46.113Z,70
2016-04-20T14:53:46.148Z,70
2016-04-20T14:54:46.166Z,70
2016-04-20T14:55:46.232Z,70
2016-04-20T14:56:46.218Z,70
2016-04-20T14:57:46.299Z,75
2016-04-20T14:58:46.271Z,70
2016-04-20T14:59:46.336Z,70
2016-04-20T15:00:46.354Z,65
2016-04-20T15:01:46.357Z,65
2016-04-20T15:02:46.422Z,65
2016-04-20T15:03:46.393Z,65
2016-04-20T15:04:46.442Z,65
2016-04-20T15:05:46.445Z,65
2016-04-20T15:06:46.479Z,65
2016-04-20T15:08:00.607Z,65
2016-04-20T15:08:46.407Z,65
2016-04-20T15:09:46.551Z,65
2016-04-20T15:10:46.600Z,65
2016-04-20T15:11:46.587Z,65
2016-04-20T15:12:46.636Z,65
2016-04-20T15:13:46.639Z,65
2016-04-20T15:14:46.672Z,65
2016-04-20T15:15:46.707Z,65
2016-04-20T15:16:46.725Z,65
2016-04-20T15:17:46.758Z,65
2016-04-20T15:18:46.793Z,65
2016-04-20T15:19:46.811Z,65
2016-04-20T15:20:46.861Z,65
2016-04-20T15:21:46.848Z,65
2016-04-20T15:22:46.866Z,65
2016-04-20T15:23:46.885Z,65
2016-04-20T15:24:46.934Z,65
2016-04-20T15:25:46.952Z,65
2016-04-20T15:26:47.018Z,60
2016-04-20T15:27:46.989Z,60
2016-04-20T15:28:47.039Z,60
2016-04-20T15:29:47.026Z,60
2016-04-20T15:30:47.060Z,60
2016-04-20T15:31:47.093Z,60
2016-04-20T15:32:47.190Z,60
2016-04-20T15:33:47.146Z,60
2016-04-20T15:34:47.148Z,60
2016-04-20T15:35:47.214Z,60
2016-04-20T15:36:47.205Z,60
2016-04-20T15:37:47.255Z,60
2016-04-20T15:38:47.273Z,60
2016-04-20T15:39:47.307Z,60
2016-04-20T15:40:47.342Z,60
2016-04-20T15:41:47.328Z,60
2016-04-20T15:42:47.378Z,60
2016-04-20T15:43:47.381Z,60
2016-04-20T15:44:47.431Z,60
2016-04-20T15:45:47.449Z,60
2016-04-20T15:46:47.467Z,60
2016-04-20T15:47:47.486Z,60
2016-04-20T15:48:47.364Z,60
2016-04-20T15:49:47.366Z,60
2016-04-20T15:50:47.588Z,60
2016-04-20T15:51:47.480Z,60
2016-04-20T15:52:47.608Z,60
2016-04-20T15:53:47.643Z,60
2016-04-20T15:54:47.676Z,60
2016-04-20T15:55:47.694Z,60
2016-04-20T15:56:47.712Z,60
2016-04-20T15:57:47.731Z,60
2016-04-20T15:58:47.771Z,60
2016-04-20T15:59:47.862Z,60
2016-04-20T16:00:47.922Z,60
2016-04-20T16:01:47.982Z,55
2016-04-20T16:02:48.109Z,55
2016-04-20T16:03:48.083Z,55
2016-04-20T16:04:47.995Z,55
2016-04-20T16:06:50.848Z,55
2016-04-20T16:07:03.520Z,55
2016-04-20T16:08:03.519Z,55
2016-04-20T16:09:03.589Z,55
2016-04-20T16:10:03.661Z,55
2016-04-20T16:11:03.699Z,55
2016-04-20T16:12:03.521Z,55
2016-04-20T16:13:03.886Z,55
2016-04-20T16:14:03.719Z,55
2016-04-20T16:15:03.740Z,55
2016-04-20T16:16:03.760Z,55
2016-04-20T16:17:04.388Z,55
2016-04-20T16:18:03.815Z,55
2016-04-20T16:19:03.851Z,50
2016-04-20T16:20:03.869Z,45
2016-04-20T16:21:03.904Z,35
2016-04-20T16:22:03.954Z,30
2016-04-20T16:23:03.927Z,25
2016-04-20T16:24:03.960Z,20
2016-04-20T16:25:04.010Z,25
2016-04-20T16:26:04.029Z,25
2016-04-20T16:27:04.047Z,20
2016-04-20T16:28:04.066Z,20
2016-04-20T16:29:04.085Z,20
2016-04-20T16:30:04.103Z,20
2016-04-20T16:31:04.138Z,20
2016-04-20T16:32:04.249Z,15
2016-04-20T16:33:04.299Z,15
2016-04-20T16:34:04.129Z,15
2016-04-20T16:35:04.366Z,15
2016-04-20T16:36:04.354Z,15
2016-04-20T16:37:04.496Z,15
2016-04-20T16:38:04.531Z,15
2016-04-20T16:39:04.440Z,15
2016-04-20T16:40:04.333Z,15
2016-04-20T16:41:04.398Z,15
2016-04-20T16:42:04.385Z,15
2016-04-20T16:43:04.420Z,15
2016-04-20T16:44:04.437Z,15
2016-04-20T16:45:04.440Z,15
2016-04-20T16:46:04.474Z,15
2016-04-20T16:47:04.508Z,15
2016-04-20T16:48:04.542Z,15
2016-04-20T16:49:04.529Z,15
2016-04-20T16:50:04.564Z,15
2016-04-20T16:51:04.598Z,15
2016-04-20T16:52:04.600Z,15
2016-04-20T16:53:04.603Z,15
2016-04-20T16:54:04.699Z,15
2016-04-20T16:55:04.670Z,15
2016-04-20T16:56:04.689Z,10
2016-04-20T16:57:04.722Z,10
2016-04-20T16:58:04.741Z,10
2016-04-20T16:59:04.759Z,10
2016-04-20T17:00:04.809Z,10
2016-04-20T17:01:04.780Z,10
2016-04-20T17:02:04.861Z,10
2016-04-20T17:03:04.848Z,10
2016-04-20T17:04:04.866Z,10
2016-04-20T17:05:04.885Z,10
2016-04-20T17:06:04.903Z,15
2016-04-20T17:07:04.921Z,15
2016-04-20T17:08:04.940Z,10
2016-04-20T17:09:04.974Z,10
2016-04-20T17:10:04.851Z,10
2016-04-20T17:11:05.010Z,10
2016-04-20T17:12:05.029Z,15
2016-04-20T17:13:05.063Z,10
2016-04-20T17:14:05.096Z,10
2016-04-20T17:15:05.099Z,15
2016-04-20T17:16:05.102Z,20
2016-04-20T17:17:05.152Z,10
2016-04-20T17:18:05.201Z,10
2016-04-20T17:19:05.187Z,10
2016-04-20T17:20:05.222Z,10
2016-04-20T17:21:05.209Z,10
2016-04-20T17:22:05.259Z,10
2016-04-20T17:23:05.262Z,5
2016-04-20T17:24:05.295Z,5
2016-04-20T17:25:05.298Z,5
2016-04-20T17:26:05.332Z,5
2016-04-20T17:27:05.350Z,5
2016-04-20T17:28:05.368Z,5
2016-04-20T17:29:05.402Z,5
2016-04-20T17:30:05.250Z,5
2016-04-20T17:31:05.408Z,5
2016-04-20T17:32:05.457Z,5
2016-04-20T17:33:05.476Z,5
2016-04-20T17:34:05.510Z,5
2016-04-20T17:35:05.497Z,5
2016-04-20T17:36:05.547Z,5
2016-04-20T17:37:05.580Z,5
2016-04-20T17:38:05.630Z,5
2016-04-20T17:39:05.616Z,5
2016-04-20T17:40:05.604Z,5
2016-04-20T17:41:05.622Z,5
2016-04-20T17:42:05.641Z,5
2016-04-20T17:43:05.660Z,5
2016-04-20T17:44:05.677Z,5
2016-04-20T17:45:05.571Z,5
2016-04-20T17:46:05.746Z,0
2016-04-20T17:47:05.779Z,0
2016-04-20T17:48:05.766Z,0
2016-04-20T17:49:05.800Z,0
2016-04-20T17:50:05.835Z,0
2016-04-20T17:51:05.821Z,0
2016-04-20T17:52:05.918Z,0
2016-04-20T17:53:06.014Z,0
2016-04-20T17:54:09.695Z,0
2016-04-20T17:55:05.901Z,0
2016-04-20T17:56:05.918Z,0
2016-04-20T17:57:05.968Z,0
2016-04-20T17:58:05.956Z,0
2016-04-20T17:59:05.989Z,0
2016-04-20T18:00:06.023Z,0
2016-04-20T18:01:06.041Z,0
2016-04-20T18:02:06.059Z,0
2016-04-20T18:03:06.062Z,0
2016-04-20T18:04:06.174Z,0
2016-04-20T18:05:06.146Z,0
2016-04-20T18:06:06.117Z,0
2016-04-20T18:07:05.993Z,0
2016-04-20T18:08:06.152Z,0
2016-04-20T18:09:05.421Z,0
2016-04-20T18:10:06.220Z,0
2016-04-20T18:11:06.206Z,0
2016-04-20T18:12:06.273Z,0
2016-04-20T18:13:06.259Z,0
2016-04-20T18:14:06.277Z,0
2016-04-20T18:15:06.421Z,0
2016-04-20T18:16:06.330Z,0
2016-04-20T18:17:06.352Z,0
2016-04-20T18:18:06.340Z,0
2016-04-20T18:19:06.357Z,0
2016-04-20T18:20:06.391Z,0
2016-04-20T18:21:06.395Z,0
2016-04-20T18:22:06.448Z,0
2016-04-20T18:23:06.436Z,0
2016-04-20T18:24:06.454Z,0
2016-04-20T18:25:06.503Z,0
2016-04-20T18:26:06.490Z,0
2016-04-20T18:27:06.400Z,0
2016-04-20T18:28:06.527Z,0
2016-04-20T18:29:06.561Z,0
2016-04-20T18:30:06.408Z,0
2016-04-20T18:31:06.582Z,0
2016-04-20T18:32:06.616Z,0
2016-04-20T18:33:06.635Z,0
2016-04-20T18:34:05.871Z,0
2016-04-20T18:35:06.655Z,0
2016-04-20T18:36:06.518Z,0
2016-04-20T18:37:06.567Z,0
2016-04-20T18:38:06.710Z,0
2016-04-20T18:39:06.729Z,0
2016-04-20T18:40:06.747Z,0
2016-04-20T18:41:06.766Z,0
2016-04-20T18:42:06.784Z,0
2016-04-20T18:43:06.818Z,0
2016-04-20T18:44:06.820Z,0
2016-04-20T18:45:06.823Z,0
2016-04-20T18:46:06.872Z,0
2016-04-20T18:47:06.110Z,0
2016-04-20T18:48:06.925Z,0
2016-04-20T18:49:06.959Z,0
2016-04-20T18:50:06.930Z,0
2016-04-20T18:51:06.933Z,0
2016-04-20T18:52:06.685Z,0
2016-04-20T18:53:07.001Z,0
2016-04-20T18:54:07.003Z,0
2016-04-20T18:55:07.037Z,0
2016-04-20T18:56:07.290Z,0
2016-04-20T18:57:07.074Z,0
2016-04-20T18:58:07.061Z,0
2016-04-20T18:59:07.095Z,0
2016-04-20T19:00:06.941Z,0
2016-04-20T19:01:07.117Z,0
2016-04-20T19:02:07.150Z,0
2016-04-20T19:03:06.996Z,0
2016-04-20T19:04:07.186Z,0
2016-04-20T19:05:07.221Z,0
2016-04-20T19:06:07.224Z,0
2016-04-20T19:07:07.258Z,0
2016-04-20T19:08:07.259Z,0
2016-04-20T19:09:07.262Z,0
2016-04-20T19:10:07.280Z,0
2016-04-20T19:11:07.330Z,0
2016-04-20T19:12:07.317Z,0
2016-04-20T19:13:07.336Z,0
2016-04-20T19:14:07.354Z,0
2016-04-20T19:15:07.388Z,0
2016-04-20T19:16:07.391Z,0
2016-04-20T19:17:07.440Z,0
2016-04-20T19:18:07.426Z,0
2016-04-20T19:19:07.461Z,0
2016-04-20T19:20:07.792Z,0
2016-04-20T19:21:07.467Z,0
2016-04-20T19:22:07.517Z,0
2016-04-20T19:23:07.519Z,0
2016-04-20T19:24:07.522Z,0
2016-04-20T19:25:07.555Z,0
2016-04-20T19:26:07.558Z,0
2016-04-20T19:27:07.608Z,0
2016-04-20T19:28:07.595Z,0
2016-04-20T19:29:07.628Z,0
2016-04-20T19:30:07.647Z,0
2016-04-20T19:31:07.634Z,0
2016-04-20T19:32:07.683Z,0
2016-04-20T19:33:07.687Z,0
2016-04-20T19:34:07.689Z,0
2016-04-20T19:35:07.722Z,0
2016-04-20T19:36:07.741Z,0
2016-04-20T19:37:07.744Z,0
2016-04-20T19:38:07.762Z,0
2016-04-20T19:39:07.797Z,0
2016-04-20T19:40:07.799Z,0
2016-04-20T19:41:07.818Z,0
2016-04-20T19:42:07.852Z,0
2016-04-20T19:43:07.854Z,0
2016-04-20T19:44:07.857Z,0
2016-04-20T19:45:07.890Z,0
2016-04-20T19:46:07.909Z,0
2016-04-20T19:47:07.912Z,0
2016-04-20T19:48:07.962Z,0
2016-04-20T19:49:07.964Z,0
2016-04-20T19:50:07.967Z,0
2016-04-20T19:51:07.985Z,0
2016-04-20T19:52:08.018Z,0
2016-04-20T19:53:08.021Z,0
2016-04-20T19:54:08.055Z,0
2016-04-20T19:55:08.073Z,0
2016-04-20T19:56:08.108Z,0
2016-04-20T19:57:08.095Z,0
2016-04-20T19:58:08.113Z,0
2016-04-20T19:59:08.131Z,0
2016-04-20T20:00:08.150Z,0
2016-04-20T20:01:08.153Z,0
2016-04-20T20:02:08.186Z,0
2016-04-20T20:03:08.189Z,0
2016-04-20T20:04:08.207Z,0
2016-04-20T20:05:08.211Z,0
2016-04-20T20:06:08.244Z,0
2016-04-20T20:07:08.263Z,0
2016-04-20T20:08:08.280Z,0
2016-04-20T20:09:08.314Z,0
2016-04-20T20:10:08.332Z,0
2016-04-20T20:11:08.304Z,0
2016-04-20T20:12:08.339Z,0
2016-04-20T20:13:08.356Z,0
2016-04-20T20:14:08.374Z,0
2016-04-20T20:15:08.393Z,0
2016-04-20T20:16:08.412Z,0
2016-04-20T20:17:08.477Z,0
2016-04-20T20:18:08.463Z,0
2016-04-20T20:19:08.466Z,0
2016-04-20T20:20:08.469Z,0
2016-04-20T20:21:08.487Z,0
2016-04-20T20:22:08.515Z,0
2016-04-20T20:23:08.292Z,0
2016-04-20T20:24:08.592Z,0
2016-04-20T20:25:08.563Z,0
2016-04-20T20:26:08.566Z,0
2016-04-20T20:27:08.583Z,0
2016-04-20T20:28:08.603Z,0
2016-04-20T20:29:08.620Z,0
2016-04-20T20:30:07.872Z,0
2016-04-20T20:31:08.658Z,0
2016-04-20T20:32:08.660Z,0
2016-04-20T20:33:08.678Z,0
2016-04-20T20:34:08.712Z,0
2016-04-20T20:35:08.715Z,0
2016-04-20T20:36:08.733Z,0
2016-04-20T20:37:08.751Z,0
2016-04-20T20:38:08.770Z,0
2016-04-20T20:39:09.476Z,0
2016-04-20T20:40:08.806Z,0
2016-04-20T20:41:08.793Z,0
2016-04-20T20:42:08.827Z,0
2016-04-20T20:43:08.829Z,0
2016-04-20T20:44:08.864Z,0
2016-04-20T20:45:08.898Z,0
2016-04-20T20:46:08.900Z,0
2016-04-20T20:47:08.904Z,0
2016-04-20T20:48:08.906Z,0
2016-04-20T20:49:08.939Z,0
2016-04-20T20:50:08.943Z,0
2016-04-20T20:51:08.961Z,0
2016-04-20T20:52:08.978Z,0
2016-04-20T20:53:08.981Z,0
2016-04-20T20:54:09.017Z,0
2016-04-20T20:55:09.050Z,0
2016-04-20T20:56:09.053Z,0
2016-04-20T20:57:09.133Z,0
2016-04-20T20:58:09.105Z,0
2016-04-20T20:59:09.075Z,0
2016-04-20T21:00:11.658Z,0
2016-04-20T21:01:09.144Z,0
2016-04-20T21:02:09.163Z,0
2016-04-20T21:03:09.150Z,0
2016-04-20T21:04:09.169Z,0
2016-04-20T21:05:09.171Z,0
2016-04-20T21:06:09.190Z,0
2016-04-20T21:07:09.239Z,0
2016-04-20T21:08:09.242Z,0
2016-04-20T21:09:09.260Z,0
2016-04-20T21:10:09.263Z,0
2016-04-20T21:11:09.282Z,0
2016-04-20T21:12:09.314Z,0
2016-04-20T21:13:09.317Z,0
2016-04-20T21:14:09.336Z,0
2016-04-20T21:15:09.339Z,0
2016-04-20T21:16:09.373Z,0
2016-04-20T21:17:09.375Z,0
2016-04-20T21:18:09.410Z,0
2016-04-20T21:19:09.413Z,0
2016-04-20T21:20:09.415Z,0
2016-04-20T21:21:09.433Z,0
2016-04-20T21:22:09.482Z,0
2016-04-20T21:23:09.469Z,0
2016-04-20T21:24:09.488Z,0
2016-04-20T21:25:09.491Z,0
2016-04-20T21:26:09.509Z,0
2016-04-20T21:27:09.527Z,0
2016-04-20T21:28:09.546Z,0
2016-04-20T21:29:09.549Z,0
2016-04-20T21:30:09.598Z,0
2016-04-20T21:31:09.601Z,0
2016-04-20T21:32:09.604Z,0
2016-04-20T21:33:09.621Z,0
2016-04-20T21:34:09.640Z,0
2016-04-20T21:35:09.659Z,0
2016-04-20T21:36:09.676Z,0
2016-04-20T21:37:09.711Z,0
2016-04-20T21:38:09.698Z,0
2016-04-20T21:39:09.717Z,0
2016-04-20T21:40:09.720Z,0
2016-04-20T21:41:09.753Z,0
2016-04-20T21:42:09.755Z,0
2016-04-20T21:43:09.758Z,0
2016-04-20T21:44:09.792Z,0
2016-04-20T21:45:09.795Z,0
2016-04-20T21:46:09.828Z,0
2016-04-20T21:47:09.831Z,0
2016-04-20T21:48:09.849Z,0
2016-04-20T21:49:09.852Z,0
2016-04-20T21:50:09.871Z,0
2016-04-20T21:51:09.920Z,0
2016-04-20T21:52:11.017Z,0
2016-04-20T21:53:10.535Z,0
2016-04-20T21:54:09.928Z,0
2016-04-20T21:55:09.947Z,0
2016-04-20T21:56:09.965Z,0
2016-04-20T21:57:09.968Z,0
2016-04-20T21:58:10.017Z,0
2016-04-20T21:59:10.020Z,0
2016-04-20T22:00:11.538Z,0
2016-04-20T22:01:12.384Z,0
2016-04-20T22:02:12.325Z,0
2016-04-20T22:03:11.905Z,0
2016-04-20T22:04:12.440Z,0
2016-04-20T22:05:11.833Z,0
2016-04-20T22:06:10.132Z,0
2016-04-20T22:07:10.151Z,0
2016-04-20T22:08:10.122Z,0
2016-04-20T22:09:10.156Z,0
2016-04-20T22:10:10.175Z,0
2016-04-20T22:11:10.192Z,0
2016-04-20T22:12:10.195Z,0
2016-04-20T22:13:10.213Z,0
2016-04-20T22:14:10.217Z,0
2016-04-20T22:15:10.297Z,0
2016-04-20T22:16:10.284Z,0
2016-04-20T22:17:10.286Z,0
2016-04-20T22:18:10.290Z,0
2016-04-20T22:19:10.292Z,0
2016-04-20T22:20:10.327Z,0
2016-04-20T22:21:10.344Z,0
2016-04-20T22:22:10.363Z,0
2016-04-20T22:23:12.552Z,0
2016-04-20T22:24:12.165Z,0
2016-04-20T22:25:13.106Z,0
2016-04-20T22:26:11.999Z,0
2016-04-20T22:27:10.439Z,0
2016-04-20T22:28:10.426Z,0
2016-04-20T22:29:10.444Z,0
2016-04-20T22:30:10.525Z,0
2016-04-20T22:31:10.481Z,0
2016-04-20T22:32:10.499Z,0
2016-04-20T22:33:10.517Z,0
2016-04-20T22:34:10.520Z,0
2016-04-20T22:35:10.570Z,0
2016-04-20T22:36:10.587Z,0
2016-04-20T22:37:10.576Z,0
2016-04-20T22:38:10.578Z,0
2016-04-20T22:39:10.596Z,0
2016-04-20T22:40:10.599Z,0
2016-04-20T22:41:10.633Z,0
2016-04-20T22:42:10.667Z,0
2016-04-20T22:43:10.653Z,0
2016-04-20T22:44:10.672Z,0
2016-04-20T22:45:10.675Z,0